TBV8266 SBGR-SBEG
Flight info
| Callsign | TBV8266 |
|---|---|
| Flight time | 3h 16m |
| Altitude | 36000 |
| Route | GERTU UM417 EVRIV DCT PUDKA DCT MATNA DCT IRUMO |
| Aircraft | A339/H-SADE1E2E3GHIJ3J5M1P2RWXY/LB2D1 |
Departure
| Time | 2026-05-06 18:08 |
|---|---|
| Airport | São Paulo/Guarulhos–Governor André Franco Montoro International Airport (SBGR) |
Arrival
| Time | 2026-05-06 21:24 |
|---|---|
| Airport | Eduardo Gomes International Airport (SBEG) |
| Time | Latitude | Longitude | Altitude | Speed | Heading |
|---|---|---|---|---|---|
| 2026-05-06 17:47 | -23.42676 | -46.47292 | 2474 ft | 0 kts | 254° |
| 2026-05-06 17:49 | -23.42675 | -46.47289 | 2474 ft | 1 kts | 254° |
| 2026-05-06 17:49 | -23.42672 | -46.47276 | 2474 ft | 2 kts | 254° |
| 2026-05-06 17:50 | -23.42667 | -46.47257 | 2474 ft | 3 kts | 254° |
| 2026-05-06 17:50 | -23.42661 | -46.47235 | 2476 ft | 3 kts | 254° |
| 2026-05-06 17:50 | -23.42655 | -46.47213 | 2474 ft | 3 kts | 248° |
| 2026-05-06 17:50 | -23.42647 | -46.47191 | 2477 ft | 3 kts | 225° |
| 2026-05-06 17:51 | -23.42632 | -46.47178 | 2477 ft | 0 kts | 176° |
| 2026-05-06 17:51 | -23.42636 | -46.47177 | 2475 ft | 1 kts | 177° |
| 2026-05-06 17:51 | -23.42647 | -46.47177 | 2477 ft | 2 kts | 179° |
| 2026-05-06 17:51 | -23.42660 | -46.47177 | 2474 ft | 2 kts | 178° |
| 2026-05-06 17:52 | -23.42671 | -46.47174 | 2477 ft | 0 kts | 166° |
| 2026-05-06 17:59 | -23.42672 | -46.47173 | 2474 ft | 2 kts | 166° |
| 2026-05-06 18:00 | -23.42718 | -46.47160 | 2478 ft | 9 kts | 165° |
| 2026-05-06 18:00 | -23.42759 | -46.47148 | 2476 ft | 9 kts | 164° |
| 2026-05-06 18:00 | -23.42824 | -46.47133 | 2477 ft | 8 kts | 185° |
| 2026-05-06 18:00 | -23.42855 | -46.47178 | 2474 ft | 7 kts | 249° |
| 2026-05-06 18:01 | -23.42874 | -46.47234 | 2477 ft | 8 kts | 252° |
| 2026-05-06 18:01 | -23.42888 | -46.47298 | 2476 ft | 9 kts | 258° |
| 2026-05-06 18:01 | -23.42908 | -46.47366 | 2479 ft | 10 kts | 252° |
| 2026-05-06 18:01 | -23.42929 | -46.47440 | 2476 ft | 11 kts | 253° |
| 2026-05-06 18:02 | -23.42948 | -46.47520 | 2477 ft | 11 kts | 255° |
| 2026-05-06 18:02 | -23.42973 | -46.47605 | 2475 ft | 12 kts | 252° |
| 2026-05-06 18:02 | -23.42998 | -46.47695 | 2477 ft | 13 kts | 255° |
| 2026-05-06 18:02 | -23.43022 | -46.47790 | 2476 ft | 13 kts | 254° |
| 2026-05-06 18:03 | -23.43050 | -46.47887 | 2474 ft | 14 kts | 252° |
| 2026-05-06 18:03 | -23.43078 | -46.47987 | 2475 ft | 14 kts | 254° |
| 2026-05-06 18:03 | -23.43106 | -46.48092 | 2494 ft | 15 kts | 253° |
| 2026-05-06 18:03 | -23.43135 | -46.48199 | 2476 ft | 15 kts | 253° |
| 2026-05-06 18:04 | -23.43164 | -46.48310 | 2477 ft | 15 kts | 254° |
| 2026-05-06 18:04 | -23.43222 | -46.48386 | 2476 ft | 13 kts | 182° |
| 2026-05-06 18:04 | -23.43296 | -46.48366 | 2476 ft | 0 kts | 165° |
| 2026-05-06 18:05 | -23.43297 | -46.48365 | 2476 ft | 1 kts | 165° |
| 2026-05-06 18:05 | -23.43350 | -46.48350 | 2476 ft | 12 kts | 165° |
| 2026-05-06 18:05 | -23.43423 | -46.48313 | 2479 ft | 9 kts | 125° |
| 2026-05-06 18:06 | -23.43409 | -46.48261 | 2478 ft | 7 kts | 71° |
| 2026-05-06 18:06 | -23.43408 | -46.48257 | 2477 ft | 0 kts | 72° |
| 2026-05-06 18:07 | -23.43402 | -46.48236 | 2476 ft | 21 kts | 72° |
| 2026-05-06 18:07 | -23.43289 | -46.47814 | 2475 ft | 94 kts | 73° |
| 2026-05-06 18:07 | -23.43043 | -46.46902 | 2479 ft | 153 kts | 74° |
| 2026-05-06 18:07 | -23.42709 | -46.45652 | 2629 ft | 184 kts | 73° |
| 2026-05-06 18:08 | -23.42378 | -46.44389 | 3507 ft | 168 kts | 73° |
| 2026-05-06 18:08 | -23.42168 | -46.43157 | 4169 ft | 170 kts | 87° |
| 2026-05-06 18:08 | -23.42161 | -46.41816 | 4611 ft | 186 kts | 87° |
| 2026-05-06 18:08 | -23.41757 | -46.40425 | 4889 ft | 205 kts | 59° |
| 2026-05-06 18:09 | -23.40811 | -46.39176 | 5204 ft | 227 kts | 39° |
| 2026-05-06 18:09 | -23.39296 | -46.38463 | 5559 ft | 251 kts | 9° |
| 2026-05-06 18:09 | -23.37495 | -46.38617 | 5838 ft | 273 kts | 342° |
| 2026-05-06 18:09 | -23.35862 | -46.39727 | 6333 ft | 283 kts | 314° |
| 2026-05-06 18:10 | -23.34821 | -46.41544 | 6964 ft | 285 kts | 292° |
| 2026-05-06 18:10 | -23.34108 | -46.43547 | 7517 ft | 289 kts | 292° |
| 2026-05-06 18:10 | -23.33234 | -46.45512 | 8153 ft | 289 kts | 300° |
| 2026-05-06 18:10 | -23.32144 | -46.47347 | 8769 ft | 289 kts | 307° |
| 2026-05-06 18:11 | -23.30892 | -46.49072 | 9359 ft | 291 kts | 311° |
| 2026-05-06 18:11 | -23.29561 | -46.50733 | 10053 ft | 291 kts | 313° |
| 2026-05-06 18:11 | -23.28186 | -46.52393 | 10435 ft | 303 kts | 314° |
| 2026-05-06 18:11 | -23.26723 | -46.54146 | 10597 ft | 322 kts | 313° |
| 2026-05-06 18:12 | -23.25180 | -46.56013 | 10744 ft | 339 kts | 313° |
| 2026-05-06 18:12 | -23.23611 | -46.57933 | 11119 ft | 348 kts | 312° |
| 2026-05-06 18:12 | -23.21992 | -46.59927 | 11603 ft | 353 kts | 312° |
| 2026-05-06 18:12 | -23.20361 | -46.61936 | 12100 ft | 357 kts | 312° |
| 2026-05-06 18:13 | -23.18703 | -46.63972 | 12551 ft | 362 kts | 312° |
| 2026-05-06 18:13 | -23.17028 | -46.66027 | 13089 ft | 364 kts | 311° |
| 2026-05-06 18:13 | -23.15333 | -46.68108 | 13556 ft | 369 kts | 311° |
| 2026-05-06 18:13 | -23.13626 | -46.70202 | 14052 ft | 371 kts | 311° |
| 2026-05-06 18:14 | -23.11904 | -46.72316 | 14487 ft | 374 kts | 311° |
| 2026-05-06 18:14 | -23.10171 | -46.74444 | 14943 ft | 377 kts | 311° |
| 2026-05-06 18:14 | -23.08422 | -46.76586 | 15379 ft | 380 kts | 311° |
| 2026-05-06 18:14 | -23.06663 | -46.78739 | 15849 ft | 382 kts | 311° |
| 2026-05-06 18:15 | -23.04893 | -46.80912 | 16268 ft | 385 kts | 311° |
| 2026-05-06 18:15 | -23.03164 | -46.83029 | 16673 ft | 388 kts | 311° |
| 2026-05-06 18:15 | -23.01365 | -46.85227 | 17117 ft | 391 kts | 311° |
| 2026-05-06 18:15 | -22.99578 | -46.87414 | 17559 ft | 393 kts | 310° |
| 2026-05-06 18:16 | -22.97752 | -46.89650 | 17971 ft | 397 kts | 310° |
| 2026-05-06 18:16 | -22.95916 | -46.91896 | 18415 ft | 399 kts | 310° |
| 2026-05-06 18:16 | -22.94065 | -46.94161 | 18806 ft | 401 kts | 310° |
| 2026-05-06 18:16 | -22.92209 | -46.96433 | 19234 ft | 403 kts | 310° |
| 2026-05-06 18:17 | -22.90342 | -46.98716 | 19653 ft | 405 kts | 310° |
| 2026-05-06 18:17 | -22.88470 | -47.01003 | 20072 ft | 407 kts | 310° |
| 2026-05-06 18:17 | -22.86584 | -47.03304 | 20505 ft | 408 kts | 310° |
| 2026-05-06 18:17 | -22.84693 | -47.05612 | 20919 ft | 410 kts | 309° |
| 2026-05-06 18:18 | -22.82793 | -47.07930 | 21335 ft | 413 kts | 309° |
| 2026-05-06 18:18 | -22.80882 | -47.10260 | 21756 ft | 415 kts | 309° |
| 2026-05-06 18:18 | -22.78959 | -47.12603 | 22172 ft | 417 kts | 309° |
| 2026-05-06 18:18 | -22.77022 | -47.14963 | 22600 ft | 419 kts | 309° |
| 2026-05-06 18:19 | -22.75078 | -47.17332 | 23014 ft | 421 kts | 309° |
| 2026-05-06 18:19 | -22.73148 | -47.19682 | 23436 ft | 424 kts | 309° |
| 2026-05-06 18:19 | -22.71180 | -47.22077 | 23824 ft | 426 kts | 309° |
| 2026-05-06 18:19 | -22.69202 | -47.24484 | 24169 ft | 429 kts | 309° |
| 2026-05-06 18:20 | -22.67215 | -47.26899 | 24499 ft | 432 kts | 308° |
| 2026-05-06 18:20 | -22.65208 | -47.29337 | 24865 ft | 434 kts | 308° |
| 2026-05-06 18:20 | -22.63186 | -47.31792 | 25204 ft | 437 kts | 308° |
| 2026-05-06 18:20 | -22.61155 | -47.34257 | 25561 ft | 439 kts | 308° |
| 2026-05-06 18:21 | -22.59117 | -47.36731 | 25917 ft | 442 kts | 308° |
| 2026-05-06 18:21 | -22.57066 | -47.39218 | 26266 ft | 444 kts | 308° |
| 2026-05-06 18:21 | -22.54996 | -47.41726 | 26610 ft | 447 kts | 308° |
| 2026-05-06 18:21 | -22.52943 | -47.44214 | 26954 ft | 449 kts | 307° |
| 2026-05-06 18:22 | -22.50857 | -47.46742 | 27290 ft | 452 kts | 307° |
| 2026-05-06 18:22 | -22.48757 | -47.49284 | 27639 ft | 454 kts | 307° |
| 2026-05-06 18:22 | -22.46644 | -47.51841 | 27974 ft | 457 kts | 307° |
| 2026-05-06 18:22 | -22.44508 | -47.54404 | 28317 ft | 461 kts | 308° |
| 2026-05-06 18:23 | -22.42148 | -47.56798 | 28623 ft | 468 kts | 316° |
| 2026-05-06 18:23 | -22.39511 | -47.58902 | 28939 ft | 475 kts | 321° |
| 2026-05-06 18:23 | -22.36763 | -47.60924 | 29238 ft | 478 kts | 321° |
| 2026-05-06 18:23 | -22.34018 | -47.62961 | 29574 ft | 480 kts | 320° |
| 2026-05-06 18:24 | -22.31259 | -47.65021 | 29868 ft | 483 kts | 320° |
| 2026-05-06 18:24 | -22.28490 | -47.67092 | 30168 ft | 486 kts | 320° |
| 2026-05-06 18:24 | -22.25702 | -47.69177 | 30462 ft | 488 kts | 320° |
| 2026-05-06 18:24 | -22.22910 | -47.71263 | 30763 ft | 490 kts | 320° |
| 2026-05-06 18:25 | -22.20099 | -47.73362 | 31052 ft | 492 kts | 320° |
| 2026-05-06 18:25 | -22.17314 | -47.75442 | 31334 ft | 494 kts | 320° |
| 2026-05-06 18:25 | -22.14485 | -47.77552 | 31625 ft | 496 kts | 320° |
| 2026-05-06 18:25 | -22.11635 | -47.79677 | 31905 ft | 498 kts | 320° |
| 2026-05-06 18:26 | -22.08774 | -47.81808 | 32185 ft | 501 kts | 319° |
| 2026-05-06 18:26 | -22.05903 | -47.83947 | 32456 ft | 503 kts | 319° |
| 2026-05-06 18:26 | -22.03009 | -47.86101 | 32689 ft | 505 kts | 319° |
| 2026-05-06 18:26 | -22.00115 | -47.88255 | 32919 ft | 507 kts | 319° |
| 2026-05-06 18:27 | -21.97204 | -47.90419 | 33108 ft | 509 kts | 319° |
| 2026-05-06 18:27 | -21.94286 | -47.92588 | 33276 ft | 510 kts | 319° |
| 2026-05-06 18:27 | -21.91365 | -47.94758 | 33434 ft | 512 kts | 319° |
| 2026-05-06 18:27 | -21.88427 | -47.96940 | 33591 ft | 513 kts | 319° |
| 2026-05-06 18:28 | -21.85492 | -47.99118 | 33768 ft | 513 kts | 319° |
| 2026-05-06 18:28 | -21.82554 | -48.01297 | 33975 ft | 513 kts | 319° |
| 2026-05-06 18:28 | -21.79617 | -48.03474 | 34152 ft | 512 kts | 319° |
| 2026-05-06 18:28 | -21.76692 | -48.05657 | 34337 ft | 511 kts | 318° |
| 2026-05-06 18:29 | -21.73790 | -48.07872 | 34528 ft | 510 kts | 318° |
| 2026-05-06 18:29 | -21.70908 | -48.10088 | 34713 ft | 509 kts | 318° |
| 2026-05-06 18:29 | -21.68028 | -48.12299 | 34894 ft | 508 kts | 318° |
| 2026-05-06 18:29 | -21.65148 | -48.14503 | 35078 ft | 508 kts | 318° |
| 2026-05-06 18:30 | -21.62300 | -48.16678 | 35257 ft | 507 kts | 318° |
| 2026-05-06 18:30 | -21.59423 | -48.18871 | 35446 ft | 506 kts | 318° |
| 2026-05-06 18:30 | -21.56552 | -48.21058 | 35628 ft | 506 kts | 318° |
| 2026-05-06 18:30 | -21.53684 | -48.23241 | 35806 ft | 505 kts | 318° |
| 2026-05-06 18:31 | -21.50817 | -48.25423 | 35981 ft | 504 kts | 318° |
| 2026-05-06 18:31 | -21.47948 | -48.27604 | 36060 ft | 504 kts | 318° |
| 2026-05-06 18:31 | -21.42234 | -48.31947 | 36064 ft | 502 kts | 318° |
| 2026-05-06 18:32 | -21.36526 | -48.36281 | 36069 ft | 503 kts | 318° |
| 2026-05-06 18:32 | -21.30850 | -48.40587 | 36064 ft | 503 kts | 318° |
| 2026-05-06 18:33 | -21.25134 | -48.44918 | 36064 ft | 503 kts | 318° |
| 2026-05-06 18:33 | -21.19418 | -48.49245 | 36064 ft | 503 kts | 318° |
| 2026-05-06 18:34 | -21.13698 | -48.53570 | 36067 ft | 503 kts | 318° |
| 2026-05-06 18:34 | -21.07985 | -48.57886 | 36061 ft | 503 kts | 318° |
| 2026-05-06 18:35 | -21.02262 | -48.62205 | 36062 ft | 502 kts | 318° |
| 2026-05-06 18:35 | -20.96581 | -48.66489 | 36064 ft | 502 kts | 318° |
| 2026-05-06 18:36 | -20.90867 | -48.70792 | 36062 ft | 502 kts | 318° |
| 2026-05-06 18:36 | -20.85147 | -48.75096 | 36064 ft | 502 kts | 318° |
| 2026-05-06 18:37 | -20.80398 | -48.78667 | 36061 ft | 502 kts | 319° |
| 2026-05-06 18:37 | -20.73718 | -48.83685 | 36063 ft | 502 kts | 319° |
| 2026-05-06 18:38 | -20.68013 | -48.87964 | 36062 ft | 501 kts | 319° |
| 2026-05-06 18:38 | -20.62298 | -48.92248 | 36062 ft | 501 kts | 319° |
| 2026-05-06 18:39 | -20.56584 | -48.96527 | 36057 ft | 501 kts | 319° |
| 2026-05-06 18:40 | -20.48018 | -49.02933 | 36056 ft | 501 kts | 319° |
| 2026-05-06 18:40 | -20.42350 | -49.07168 | 36052 ft | 501 kts | 319° |
| 2026-05-06 18:41 | -20.36649 | -49.11424 | 36053 ft | 501 kts | 319° |
| 2026-05-06 18:41 | -20.30940 | -49.15681 | 36050 ft | 500 kts | 319° |
| 2026-05-06 18:42 | -20.25236 | -49.19930 | 36047 ft | 500 kts | 319° |
| 2026-05-06 18:42 | -20.19523 | -49.24182 | 36052 ft | 500 kts | 319° |
| 2026-05-06 18:43 | -20.13812 | -49.28429 | 36045 ft | 500 kts | 319° |
| 2026-05-06 18:43 | -20.08105 | -49.32669 | 36043 ft | 500 kts | 319° |
| 2026-05-06 18:44 | -20.02401 | -49.36903 | 36039 ft | 500 kts | 319° |
| 2026-05-06 18:44 | -19.96698 | -49.41132 | 36042 ft | 500 kts | 319° |
| 2026-05-06 18:45 | -19.90993 | -49.45359 | 36040 ft | 499 kts | 319° |
| 2026-05-06 18:45 | -19.85324 | -49.49556 | 36038 ft | 499 kts | 319° |
| 2026-05-06 18:46 | -19.79625 | -49.53771 | 36040 ft | 499 kts | 319° |
| 2026-05-06 18:46 | -19.73922 | -49.57986 | 36039 ft | 499 kts | 319° |
| 2026-05-06 18:47 | -19.68230 | -49.62187 | 36035 ft | 498 kts | 319° |
| 2026-05-06 18:47 | -19.63490 | -49.65685 | 36192 ft | 499 kts | 319° |
| 2026-05-06 18:47 | -19.59721 | -49.68462 | 36478 ft | 497 kts | 319° |
| 2026-05-06 18:48 | -19.57800 | -49.69877 | 36620 ft | 495 kts | 319° |
| 2026-05-06 18:48 | -19.54973 | -49.71959 | 36828 ft | 494 kts | 319° |
| 2026-05-06 18:48 | -19.52154 | -49.74034 | 37028 ft | 493 kts | 319° |
| 2026-05-06 18:48 | -19.49375 | -49.76080 | 37219 ft | 492 kts | 319° |
| 2026-05-06 18:49 | -19.46531 | -49.78172 | 37415 ft | 490 kts | 319° |
| 2026-05-06 18:49 | -19.43734 | -49.80230 | 37615 ft | 489 kts | 319° |
| 2026-05-06 18:49 | -19.40938 | -49.82285 | 37795 ft | 488 kts | 319° |
| 2026-05-06 18:49 | -19.38189 | -49.84305 | 37989 ft | 487 kts | 319° |
| 2026-05-06 18:50 | -19.35408 | -49.86348 | 38038 ft | 486 kts | 319° |
| 2026-05-06 18:50 | -19.29813 | -49.90377 | 38034 ft | 486 kts | 321° |
| 2026-05-06 18:51 | -19.24174 | -49.94341 | 38033 ft | 486 kts | 321° |
| 2026-05-06 18:51 | -19.18549 | -49.98312 | 38031 ft | 485 kts | 320° |
| 2026-05-06 18:52 | -19.12939 | -50.02282 | 38030 ft | 485 kts | 321° |
| 2026-05-06 18:52 | -19.07359 | -50.06229 | 38033 ft | 485 kts | 321° |
| 2026-05-06 18:53 | -19.01752 | -50.10192 | 38027 ft | 484 kts | 321° |
| 2026-05-06 18:53 | -18.96145 | -50.14149 | 38028 ft | 484 kts | 321° |
| 2026-05-06 18:54 | -18.90548 | -50.18096 | 38025 ft | 483 kts | 321° |
| 2026-05-06 18:54 | -18.84953 | -50.22039 | 38022 ft | 483 kts | 321° |
| 2026-05-06 18:55 | -18.79359 | -50.25977 | 38022 ft | 483 kts | 321° |
| 2026-05-06 18:55 | -18.73803 | -50.29885 | 38024 ft | 483 kts | 321° |
| 2026-05-06 18:56 | -18.68213 | -50.33814 | 38020 ft | 483 kts | 321° |
| 2026-05-06 18:56 | -18.62618 | -50.37744 | 38023 ft | 483 kts | 321° |
| 2026-05-06 18:57 | -18.57027 | -50.41667 | 38027 ft | 483 kts | 321° |
| 2026-05-06 18:57 | -18.51432 | -50.45590 | 38026 ft | 483 kts | 321° |
| 2026-05-06 18:58 | -18.45834 | -50.49511 | 38023 ft | 483 kts | 321° |
| 2026-05-06 18:58 | -18.40240 | -50.53428 | 38025 ft | 482 kts | 321° |
| 2026-05-06 18:59 | -18.34649 | -50.57340 | 38031 ft | 482 kts | 321° |
| 2026-05-06 18:59 | -18.29098 | -50.61220 | 38027 ft | 482 kts | 321° |
| 2026-05-06 19:00 | -18.23505 | -50.65126 | 38035 ft | 482 kts | 321° |
| 2026-05-06 19:00 | -18.17910 | -50.69030 | 38042 ft | 482 kts | 321° |
| 2026-05-06 19:01 | -18.12320 | -50.72928 | 38040 ft | 483 kts | 321° |
| 2026-05-06 19:01 | -18.06725 | -50.76826 | 38036 ft | 482 kts | 321° |
| 2026-05-06 19:02 | -18.01121 | -50.80728 | 38040 ft | 482 kts | 321° |
| 2026-05-06 19:02 | -17.95530 | -50.84618 | 38047 ft | 482 kts | 321° |
| 2026-05-06 19:03 | -17.89934 | -50.88509 | 38037 ft | 482 kts | 321° |
| 2026-05-06 19:03 | -17.84341 | -50.92393 | 38039 ft | 482 kts | 321° |
| 2026-05-06 19:04 | -17.78785 | -50.96249 | 38038 ft | 482 kts | 321° |
| 2026-05-06 19:04 | -17.73196 | -51.00125 | 38041 ft | 482 kts | 321° |
| 2026-05-06 19:05 | -17.67605 | -51.04001 | 38041 ft | 481 kts | 321° |
| 2026-05-06 19:05 | -17.62011 | -51.07874 | 38039 ft | 481 kts | 321° |
| 2026-05-06 19:06 | -17.56423 | -51.11741 | 38041 ft | 481 kts | 321° |
| 2026-05-06 19:06 | -17.50869 | -51.15582 | 38043 ft | 481 kts | 321° |
| 2026-05-06 19:07 | -17.45281 | -51.19443 | 38038 ft | 481 kts | 321° |
| 2026-05-06 19:07 | -17.39699 | -51.23297 | 38035 ft | 480 kts | 322° |
| 2026-05-06 19:08 | -17.34118 | -51.27147 | 38035 ft | 480 kts | 322° |
| 2026-05-06 19:08 | -17.28530 | -51.31000 | 38032 ft | 481 kts | 322° |
| 2026-05-06 19:09 | -17.22945 | -51.34848 | 38036 ft | 481 kts | 322° |
| 2026-05-06 19:09 | -17.17391 | -51.38671 | 38027 ft | 481 kts | 322° |
| 2026-05-06 19:10 | -17.11797 | -51.42518 | 38024 ft | 481 kts | 322° |
| 2026-05-06 19:10 | -17.06200 | -51.46365 | 38024 ft | 481 kts | 322° |
| 2026-05-06 19:11 | -17.00603 | -51.50211 | 38024 ft | 481 kts | 322° |
| 2026-05-06 19:11 | -16.95003 | -51.54055 | 38020 ft | 482 kts | 322° |
| 2026-05-06 19:12 | -16.89403 | -51.57896 | 38022 ft | 482 kts | 322° |
| 2026-05-06 19:12 | -16.83823 | -51.61720 | 38012 ft | 482 kts | 322° |
| 2026-05-06 19:13 | -16.78218 | -51.65559 | 38010 ft | 482 kts | 322° |
| 2026-05-06 19:13 | -16.72607 | -51.69399 | 38011 ft | 482 kts | 322° |
| 2026-05-06 19:14 | -16.66988 | -51.73243 | 38014 ft | 482 kts | 322° |
| 2026-05-06 19:14 | -16.61410 | -51.77055 | 38010 ft | 482 kts | 322° |
| 2026-05-06 19:15 | -16.55795 | -51.80890 | 38007 ft | 482 kts | 322° |
| 2026-05-06 19:15 | -16.50180 | -51.84722 | 38002 ft | 482 kts | 322° |
| 2026-05-06 19:16 | -16.44563 | -51.88552 | 38005 ft | 482 kts | 322° |
| 2026-05-06 19:16 | -16.38953 | -51.92376 | 37999 ft | 482 kts | 322° |
| 2026-05-06 19:17 | -16.33326 | -51.96207 | 37995 ft | 482 kts | 322° |
| 2026-05-06 19:17 | -16.27713 | -52.00028 | 37995 ft | 482 kts | 322° |
| 2026-05-06 19:18 | -16.22139 | -52.03819 | 37989 ft | 482 kts | 322° |
| 2026-05-06 19:18 | -16.16534 | -52.07628 | 37989 ft | 481 kts | 322° |
| 2026-05-06 19:19 | -16.10930 | -52.11434 | 37988 ft | 481 kts | 322° |
| 2026-05-06 19:19 | -16.05322 | -52.15241 | 37992 ft | 480 kts | 322° |
| 2026-05-06 19:20 | -15.99719 | -52.19040 | 38001 ft | 480 kts | 322° |
| 2026-05-06 19:20 | -15.94124 | -52.22832 | 38010 ft | 480 kts | 322° |
| 2026-05-06 19:21 | -15.88540 | -52.26615 | 38017 ft | 479 kts | 322° |
| 2026-05-06 19:21 | -15.82953 | -52.30396 | 38018 ft | 479 kts | 323° |
| 2026-05-06 19:22 | -15.77404 | -52.34150 | 38021 ft | 479 kts | 323° |
| 2026-05-06 19:22 | -15.71820 | -52.37924 | 38013 ft | 479 kts | 323° |
| 2026-05-06 19:23 | -15.66240 | -52.41694 | 38005 ft | 479 kts | 323° |
| 2026-05-06 19:23 | -15.60661 | -52.45460 | 37997 ft | 478 kts | 323° |
| 2026-05-06 19:24 | -15.55081 | -52.49224 | 37990 ft | 478 kts | 323° |
| 2026-05-06 19:24 | -15.49501 | -52.52986 | 37987 ft | 478 kts | 323° |
| 2026-05-06 19:25 | -15.43961 | -52.56719 | 37988 ft | 478 kts | 323° |
| 2026-05-06 19:25 | -15.38388 | -52.60471 | 37985 ft | 478 kts | 323° |
| 2026-05-06 19:26 | -15.32815 | -52.64221 | 37987 ft | 478 kts | 323° |
| 2026-05-06 19:26 | -15.27237 | -52.67972 | 37979 ft | 477 kts | 323° |
| 2026-05-06 19:27 | -15.21667 | -52.71715 | 37978 ft | 477 kts | 323° |
| 2026-05-06 19:27 | -15.16093 | -52.75458 | 37975 ft | 477 kts | 323° |
| 2026-05-06 19:28 | -15.10551 | -52.79178 | 37979 ft | 477 kts | 323° |
| 2026-05-06 19:28 | -15.04974 | -52.82920 | 37979 ft | 477 kts | 323° |
| 2026-05-06 19:29 | -14.99394 | -52.86659 | 37969 ft | 477 kts | 323° |
| 2026-05-06 19:29 | -14.93818 | -52.90394 | 37974 ft | 477 kts | 323° |
| 2026-05-06 19:30 | -14.88290 | -52.94095 | 37975 ft | 477 kts | 323° |
| 2026-05-06 19:30 | -14.82714 | -52.97825 | 37971 ft | 477 kts | 323° |
| 2026-05-06 19:31 | -14.77140 | -53.01551 | 37973 ft | 477 kts | 323° |
| 2026-05-06 19:31 | -14.68780 | -53.07137 | 37973 ft | 477 kts | 323° |
| 2026-05-06 19:32 | -14.63205 | -53.10859 | 37968 ft | 477 kts | 323° |
| 2026-05-06 19:32 | -14.57665 | -53.14554 | 37961 ft | 477 kts | 323° |
| 2026-05-06 19:33 | -14.52090 | -53.18272 | 37967 ft | 477 kts | 323° |
| 2026-05-06 19:33 | -14.46506 | -53.21992 | 37988 ft | 477 kts | 323° |
| 2026-05-06 19:34 | -14.40954 | -53.25690 | 37986 ft | 477 kts | 323° |
| 2026-05-06 19:34 | -14.35375 | -53.29402 | 37964 ft | 477 kts | 323° |
| 2026-05-06 19:35 | -14.29791 | -53.33117 | 37974 ft | 477 kts | 323° |
| 2026-05-06 19:35 | -14.24214 | -53.36825 | 37958 ft | 477 kts | 323° |
| 2026-05-06 19:36 | -14.18635 | -53.40531 | 37955 ft | 477 kts | 323° |
| 2026-05-06 19:36 | -14.13057 | -53.44235 | 37967 ft | 477 kts | 324° |
| 2026-05-06 19:37 | -14.07500 | -53.47924 | 37966 ft | 477 kts | 324° |
| 2026-05-06 19:37 | -14.02857 | -53.51004 | 37975 ft | 477 kts | 324° |
| 2026-05-06 19:38 | -13.96328 | -53.55333 | 37970 ft | 477 kts | 324° |
| 2026-05-06 19:38 | -13.91689 | -53.58406 | 37970 ft | 477 kts | 324° |
| 2026-05-06 19:39 | -13.86092 | -53.62102 | 37956 ft | 478 kts | 324° |
| 2026-05-06 19:39 | -13.80491 | -53.65800 | 37962 ft | 478 kts | 324° |
| 2026-05-06 19:40 | -13.74890 | -53.69501 | 37953 ft | 478 kts | 324° |
| 2026-05-06 19:40 | -13.69296 | -53.73196 | 37964 ft | 478 kts | 324° |
| 2026-05-06 19:41 | -13.63724 | -53.76872 | 37956 ft | 478 kts | 324° |
| 2026-05-06 19:41 | -13.58119 | -53.80568 | 37948 ft | 478 kts | 324° |
| 2026-05-06 19:42 | -13.52514 | -53.84262 | 37959 ft | 478 kts | 324° |
| 2026-05-06 19:42 | -13.46936 | -53.87936 | 37956 ft | 478 kts | 324° |
| 2026-05-06 19:43 | -13.41331 | -53.91625 | 37948 ft | 478 kts | 324° |
| 2026-05-06 19:43 | -13.35717 | -53.95318 | 37953 ft | 478 kts | 324° |
| 2026-05-06 19:44 | -13.30111 | -53.99004 | 37948 ft | 478 kts | 324° |
| 2026-05-06 19:44 | -13.24503 | -54.02689 | 37950 ft | 478 kts | 324° |
| 2026-05-06 19:45 | -13.18899 | -54.06370 | 37942 ft | 478 kts | 324° |
| 2026-05-06 19:45 | -13.13295 | -54.10048 | 37946 ft | 478 kts | 324° |
| 2026-05-06 19:46 | -13.07724 | -54.13704 | 37939 ft | 478 kts | 324° |
| 2026-05-06 19:46 | -13.02110 | -54.17385 | 37941 ft | 477 kts | 324° |
| 2026-05-06 19:47 | -12.96504 | -54.21059 | 37939 ft | 477 kts | 324° |
| 2026-05-06 19:47 | -12.90942 | -54.24702 | 37943 ft | 477 kts | 324° |
| 2026-05-06 19:48 | -12.85341 | -54.28369 | 37939 ft | 477 kts | 324° |
| 2026-05-06 19:48 | -12.79742 | -54.32032 | 37940 ft | 477 kts | 324° |
| 2026-05-06 19:49 | -12.74150 | -54.35689 | 37938 ft | 477 kts | 324° |
| 2026-05-06 19:49 | -12.68555 | -54.39346 | 37939 ft | 477 kts | 324° |
| 2026-05-06 19:50 | -12.62957 | -54.43002 | 37934 ft | 477 kts | 324° |
| 2026-05-06 19:50 | -12.57398 | -54.46632 | 37934 ft | 477 kts | 324° |
| 2026-05-06 19:51 | -12.51809 | -54.50279 | 37933 ft | 477 kts | 324° |
| 2026-05-06 19:51 | -12.46207 | -54.53934 | 37939 ft | 477 kts | 324° |
| 2026-05-06 19:52 | -12.40606 | -54.57584 | 37938 ft | 477 kts | 324° |
| 2026-05-06 19:52 | -12.35042 | -54.61209 | 37933 ft | 477 kts | 324° |
| 2026-05-06 19:53 | -12.29441 | -54.64857 | 37932 ft | 477 kts | 325° |
| 2026-05-06 19:53 | -12.23842 | -54.68501 | 37944 ft | 477 kts | 325° |
| 2026-05-06 19:54 | -12.18235 | -54.72149 | 37936 ft | 477 kts | 325° |
| 2026-05-06 19:54 | -12.12634 | -54.75791 | 37932 ft | 477 kts | 325° |
| 2026-05-06 19:55 | -12.07070 | -54.79406 | 37933 ft | 477 kts | 325° |
| 2026-05-06 19:55 | -12.01472 | -54.83043 | 37940 ft | 477 kts | 325° |
| 2026-05-06 19:56 | -11.95868 | -54.86681 | 37937 ft | 477 kts | 325° |
| 2026-05-06 19:56 | -11.90267 | -54.90316 | 37940 ft | 477 kts | 325° |
| 2026-05-06 19:57 | -11.84669 | -54.93947 | 37940 ft | 477 kts | 325° |
| 2026-05-06 19:57 | -11.79066 | -54.97579 | 37940 ft | 476 kts | 325° |
| 2026-05-06 19:58 | -11.73474 | -55.01202 | 37938 ft | 476 kts | 325° |
| 2026-05-06 19:58 | -11.67880 | -55.04825 | 37939 ft | 476 kts | 325° |
| 2026-05-06 19:59 | -11.62285 | -55.08447 | 37930 ft | 476 kts | 326° |
| 2026-05-06 19:59 | -11.56719 | -55.12049 | 37931 ft | 476 kts | 326° |
| 2026-05-06 20:00 | -11.51129 | -55.15664 | 37928 ft | 476 kts | 326° |
| 2026-05-06 20:00 | -11.45528 | -55.19284 | 37935 ft | 476 kts | 326° |
| 2026-05-06 20:01 | -11.39933 | -55.22899 | 37932 ft | 476 kts | 326° |
| 2026-05-06 20:01 | -11.34343 | -55.26508 | 37928 ft | 476 kts | 326° |
| 2026-05-06 20:02 | -11.28783 | -55.30098 | 37936 ft | 475 kts | 326° |
| 2026-05-06 20:02 | -11.23191 | -55.33706 | 37936 ft | 475 kts | 326° |
| 2026-05-06 20:03 | -11.17601 | -55.37310 | 37941 ft | 475 kts | 326° |
| 2026-05-06 20:03 | -11.12011 | -55.40914 | 37933 ft | 475 kts | 326° |
| 2026-05-06 20:04 | -11.06421 | -55.44515 | 37928 ft | 475 kts | 326° |
| 2026-05-06 20:04 | -11.00835 | -55.48112 | 37930 ft | 475 kts | 326° |
| 2026-05-06 20:05 | -10.95252 | -55.51707 | 37932 ft | 475 kts | 326° |
| 2026-05-06 20:05 | -10.89666 | -55.55301 | 37926 ft | 475 kts | 326° |
| 2026-05-06 20:06 | -10.84111 | -55.58874 | 37924 ft | 475 kts | 326° |
| 2026-05-06 20:06 | -10.78528 | -55.62462 | 37924 ft | 475 kts | 326° |
| 2026-05-06 20:07 | -10.72944 | -55.66049 | 37921 ft | 475 kts | 326° |
| 2026-05-06 20:07 | -10.67358 | -55.69637 | 37921 ft | 475 kts | 326° |
| 2026-05-06 20:08 | -10.61772 | -55.73224 | 37920 ft | 475 kts | 326° |
| 2026-05-06 20:08 | -10.56176 | -55.76815 | 37931 ft | 475 kts | 326° |
| 2026-05-06 20:09 | -10.50622 | -55.80378 | 37923 ft | 475 kts | 326° |
| 2026-05-06 20:09 | -10.45028 | -55.83963 | 37926 ft | 475 kts | 326° |
| 2026-05-06 20:10 | -10.39430 | -55.87551 | 37931 ft | 475 kts | 326° |
| 2026-05-06 20:10 | -10.33833 | -55.91137 | 37926 ft | 475 kts | 326° |
| 2026-05-06 20:11 | -10.28234 | -55.94722 | 37925 ft | 475 kts | 326° |
| 2026-05-06 20:11 | -10.22673 | -55.98281 | 37926 ft | 475 kts | 326° |
| 2026-05-06 20:12 | -10.17078 | -56.01861 | 37928 ft | 475 kts | 326° |
| 2026-05-06 20:12 | -10.11484 | -56.05438 | 37941 ft | 475 kts | 326° |
| 2026-05-06 20:13 | -10.06829 | -56.08414 | 37952 ft | 475 kts | 326° |
| 2026-05-06 20:13 | -10.00279 | -56.12600 | 37959 ft | 475 kts | 326° |
| 2026-05-06 20:14 | -9.94686 | -56.16172 | 37968 ft | 475 kts | 326° |
| 2026-05-06 20:14 | -9.89132 | -56.19718 | 37969 ft | 474 kts | 326° |
| 2026-05-06 20:15 | -9.83540 | -56.23287 | 37963 ft | 474 kts | 326° |
| 2026-05-06 20:15 | -9.77959 | -56.26848 | 37951 ft | 474 kts | 326° |
| 2026-05-06 20:16 | -9.72374 | -56.30411 | 37944 ft | 474 kts | 326° |
| 2026-05-06 20:16 | -9.66831 | -56.34027 | 37929 ft | 474 kts | 325° |
| 2026-05-06 20:17 | -9.61312 | -56.37690 | 37921 ft | 473 kts | 325° |
| 2026-05-06 20:17 | -9.55826 | -56.41316 | 37926 ft | 473 kts | 326° |
| 2026-05-06 20:18 | -9.50300 | -56.44960 | 37919 ft | 473 kts | 326° |
| 2026-05-06 20:18 | -9.44777 | -56.48598 | 37923 ft | 473 kts | 326° |
| 2026-05-06 20:19 | -9.39251 | -56.52238 | 37926 ft | 473 kts | 326° |
| 2026-05-06 20:19 | -9.33732 | -56.55871 | 37919 ft | 473 kts | 326° |
| 2026-05-06 20:20 | -9.28208 | -56.59506 | 37917 ft | 473 kts | 326° |
| 2026-05-06 20:20 | -9.22691 | -56.63134 | 37921 ft | 473 kts | 326° |
| 2026-05-06 20:21 | -9.17212 | -56.66737 | 37920 ft | 472 kts | 326° |
| 2026-05-06 20:21 | -9.11695 | -56.70363 | 37916 ft | 472 kts | 326° |
| 2026-05-06 20:22 | -9.06179 | -56.73988 | 37916 ft | 472 kts | 326° |
| 2026-05-06 20:22 | -9.00665 | -56.77609 | 37913 ft | 472 kts | 326° |
| 2026-05-06 20:23 | -8.95190 | -56.81203 | 37911 ft | 472 kts | 326° |
| 2026-05-06 20:23 | -8.89675 | -56.84823 | 37915 ft | 472 kts | 326° |
| 2026-05-06 20:24 | -8.84166 | -56.88437 | 37915 ft | 472 kts | 326° |
| 2026-05-06 20:24 | -8.78654 | -56.92052 | 37913 ft | 472 kts | 326° |
| 2026-05-06 20:25 | -8.74065 | -56.95061 | 37917 ft | 472 kts | 326° |
| 2026-05-06 20:25 | -8.67641 | -56.99271 | 37915 ft | 473 kts | 326° |
| 2026-05-06 20:26 | -8.62120 | -57.02887 | 37920 ft | 473 kts | 326° |
| 2026-05-06 20:26 | -8.56595 | -57.06505 | 37921 ft | 473 kts | 326° |
| 2026-05-06 20:27 | -8.51066 | -57.10125 | 37917 ft | 473 kts | 326° |
| 2026-05-06 20:27 | -8.46470 | -57.13132 | 37920 ft | 473 kts | 326° |
| 2026-05-06 20:28 | -8.40942 | -57.16749 | 37916 ft | 473 kts | 326° |
| 2026-05-06 20:28 | -8.35406 | -57.20369 | 37919 ft | 473 kts | 326° |
| 2026-05-06 20:29 | -8.29916 | -57.23959 | 37918 ft | 473 kts | 326° |
| 2026-05-06 20:29 | -8.24380 | -57.27577 | 37917 ft | 473 kts | 326° |
| 2026-05-06 20:30 | -8.16084 | -57.32996 | 37914 ft | 473 kts | 326° |
| 2026-05-06 20:31 | -8.10550 | -57.36611 | 37913 ft | 473 kts | 326° |
| 2026-05-06 20:31 | -8.05018 | -57.40221 | 37913 ft | 473 kts | 326° |
| 2026-05-06 20:32 | -7.99518 | -57.43811 | 37913 ft | 473 kts | 326° |
| 2026-05-06 20:32 | -7.93980 | -57.47424 | 37909 ft | 473 kts | 326° |
| 2026-05-06 20:33 | -7.88444 | -57.51034 | 37911 ft | 473 kts | 326° |
| 2026-05-06 20:33 | -7.82913 | -57.54640 | 37912 ft | 474 kts | 326° |
| 2026-05-06 20:34 | -7.77375 | -57.58250 | 37913 ft | 474 kts | 326° |
| 2026-05-06 20:34 | -7.71878 | -57.61831 | 37913 ft | 473 kts | 326° |
| 2026-05-06 20:35 | -7.66334 | -57.65443 | 37912 ft | 473 kts | 327° |
| 2026-05-06 20:35 | -7.60793 | -57.69050 | 37910 ft | 474 kts | 327° |
| 2026-05-06 20:36 | -7.55251 | -57.72657 | 37910 ft | 474 kts | 327° |
| 2026-05-06 20:36 | -7.49707 | -57.76264 | 37910 ft | 474 kts | 327° |
| 2026-05-06 20:37 | -7.44197 | -57.79849 | 37912 ft | 474 kts | 327° |
| 2026-05-06 20:37 | -7.38649 | -57.83457 | 37914 ft | 474 kts | 327° |
| 2026-05-06 20:38 | -7.33109 | -57.87058 | 37917 ft | 474 kts | 327° |
| 2026-05-06 20:38 | -7.27564 | -57.90662 | 37921 ft | 474 kts | 327° |
| 2026-05-06 20:39 | -7.22026 | -57.94260 | 37920 ft | 474 kts | 327° |
| 2026-05-06 20:39 | -7.16485 | -57.97860 | 37925 ft | 474 kts | 327° |
| 2026-05-06 20:40 | -7.10971 | -58.01440 | 37920 ft | 474 kts | 327° |
| 2026-05-06 20:40 | -7.05422 | -58.05042 | 37916 ft | 474 kts | 327° |
| 2026-05-06 20:41 | -6.99867 | -58.08647 | 37917 ft | 474 kts | 327° |
| 2026-05-06 20:41 | -6.94312 | -58.12250 | 37919 ft | 475 kts | 327° |
| 2026-05-06 20:42 | -6.88758 | -58.15852 | 37925 ft | 475 kts | 327° |
| 2026-05-06 20:42 | -6.83232 | -58.19434 | 37928 ft | 476 kts | 327° |
| 2026-05-06 20:43 | -6.77663 | -58.23044 | 37931 ft | 476 kts | 327° |
| 2026-05-06 20:43 | -6.72093 | -58.26654 | 37929 ft | 476 kts | 327° |
| 2026-05-06 20:44 | -6.66525 | -58.30262 | 37935 ft | 476 kts | 327° |
| 2026-05-06 20:44 | -6.60958 | -58.33867 | 37934 ft | 476 kts | 327° |
| 2026-05-06 20:45 | -6.55423 | -58.37450 | 37936 ft | 476 kts | 327° |
| 2026-05-06 20:45 | -6.49850 | -58.41058 | 37941 ft | 476 kts | 327° |
| 2026-05-06 20:46 | -6.44283 | -58.44662 | 37940 ft | 475 kts | 327° |
| 2026-05-06 20:46 | -6.38719 | -58.48261 | 37938 ft | 475 kts | 327° |
| 2026-05-06 20:47 | -6.33148 | -58.51865 | 37940 ft | 475 kts | 327° |
| 2026-05-06 20:47 | -6.27625 | -58.55436 | 37937 ft | 475 kts | 327° |
| 2026-05-06 20:48 | -6.22067 | -58.59029 | 37933 ft | 475 kts | 327° |
| 2026-05-06 20:48 | -6.16508 | -58.62622 | 37939 ft | 475 kts | 327° |
| 2026-05-06 20:49 | -6.10945 | -58.66218 | 37938 ft | 475 kts | 327° |
| 2026-05-06 20:49 | -6.05381 | -58.69812 | 37934 ft | 475 kts | 327° |
| 2026-05-06 20:50 | -5.99814 | -58.73408 | 37934 ft | 475 kts | 327° |
| 2026-05-06 20:50 | -5.94251 | -58.77001 | 37936 ft | 475 kts | 327° |
| 2026-05-06 20:51 | -5.88726 | -58.80568 | 37936 ft | 475 kts | 327° |
| 2026-05-06 20:51 | -5.83156 | -58.84164 | 37938 ft | 475 kts | 327° |
| 2026-05-06 20:52 | -5.77584 | -58.87759 | 37938 ft | 475 kts | 327° |
| 2026-05-06 20:52 | -5.72019 | -58.91349 | 37937 ft | 476 kts | 327° |
| 2026-05-06 20:53 | -5.66475 | -58.94925 | 37935 ft | 476 kts | 327° |
| 2026-05-06 20:53 | -5.60896 | -58.98522 | 37935 ft | 477 kts | 327° |
| 2026-05-06 20:54 | -5.55306 | -59.02125 | 37934 ft | 478 kts | 327° |
| 2026-05-06 20:54 | -5.49709 | -59.05733 | 37935 ft | 478 kts | 327° |
| 2026-05-06 20:55 | -5.44107 | -59.09343 | 37940 ft | 479 kts | 327° |
| 2026-05-06 20:55 | -5.38486 | -59.12963 | 37945 ft | 479 kts | 327° |
| 2026-05-06 20:56 | -5.32871 | -59.16579 | 37948 ft | 479 kts | 327° |
| 2026-05-06 20:56 | -5.27255 | -59.20195 | 37947 ft | 480 kts | 327° |
| 2026-05-06 20:57 | -5.21633 | -59.23814 | 37946 ft | 480 kts | 327° |
| 2026-05-06 20:57 | -5.16016 | -59.27429 | 37946 ft | 480 kts | 327° |
| 2026-05-06 20:58 | -5.10426 | -59.31027 | 37942 ft | 480 kts | 327° |
| 2026-05-06 20:58 | -5.04803 | -59.34645 | 37946 ft | 480 kts | 327° |
| 2026-05-06 20:59 | -4.99181 | -59.38262 | 37945 ft | 480 kts | 327° |
| 2026-05-06 20:59 | -4.93548 | -59.41885 | 37949 ft | 480 kts | 327° |
| 2026-05-06 21:00 | -4.87926 | -59.45499 | 37952 ft | 480 kts | 327° |
| 2026-05-06 21:00 | -4.82298 | -59.49116 | 37950 ft | 480 kts | 327° |
| 2026-05-06 21:01 | -4.76679 | -59.52727 | 37942 ft | 479 kts | 327° |
| 2026-05-06 21:01 | -4.71097 | -59.56314 | 37941 ft | 479 kts | 327° |
| 2026-05-06 21:02 | -4.65470 | -59.59930 | 37518 ft | 480 kts | 328° |
| 2026-05-06 21:02 | -4.62646 | -59.61744 | 36802 ft | 483 kts | 328° |
| 2026-05-06 21:02 | -4.59805 | -59.63569 | 35792 ft | 488 kts | 328° |
| 2026-05-06 21:02 | -4.56927 | -59.65417 | 34577 ft | 495 kts | 328° |
| 2026-05-06 21:03 | -4.54007 | -59.67293 | 33216 ft | 501 kts | 328° |
| 2026-05-06 21:03 | -4.51054 | -59.69190 | 31765 ft | 506 kts | 328° |
| 2026-05-06 21:03 | -4.48075 | -59.71104 | 30346 ft | 511 kts | 328° |
| 2026-05-06 21:03 | -4.45083 | -59.73026 | 29226 ft | 509 kts | 328° |
| 2026-05-06 21:04 | -4.42112 | -59.74933 | 28341 ft | 503 kts | 328° |
| 2026-05-06 21:04 | -4.39181 | -59.76814 | 27758 ft | 495 kts | 328° |
| 2026-05-06 21:04 | -4.36318 | -59.78651 | 27437 ft | 482 kts | 328° |
| 2026-05-06 21:04 | -4.33567 | -59.80418 | 27096 ft | 470 kts | 328° |
| 2026-05-06 21:05 | -4.30816 | -59.82182 | 26377 ft | 469 kts | 328° |
| 2026-05-06 21:05 | -4.28085 | -59.83934 | 25748 ft | 465 kts | 328° |
| 2026-05-06 21:05 | -4.25362 | -59.85681 | 25122 ft | 462 kts | 328° |
| 2026-05-06 21:05 | -4.22659 | -59.87414 | 24488 ft | 460 kts | 328° |
| 2026-05-06 21:06 | -4.19965 | -59.89142 | 23835 ft | 458 kts | 328° |
| 2026-05-06 21:06 | -4.17290 | -59.90858 | 23119 ft | 456 kts | 328° |
| 2026-05-06 21:06 | -4.14635 | -59.92561 | 22516 ft | 450 kts | 328° |
| 2026-05-06 21:06 | -4.11950 | -59.94121 | 21885 ft | 442 kts | 336° |
| 2026-05-06 21:07 | -4.09058 | -59.95088 | 21248 ft | 434 kts | 350° |
| 2026-05-06 21:07 | -4.06089 | -59.95369 | 20640 ft | 426 kts | 4° |
| 2026-05-06 21:07 | -4.03164 | -59.95120 | 19989 ft | 420 kts | 8° |
| 2026-05-06 21:07 | -4.00277 | -59.94781 | 19400 ft | 415 kts | 8° |
| 2026-05-06 21:08 | -3.97427 | -59.94457 | 18812 ft | 409 kts | 8° |
| 2026-05-06 21:08 | -3.94603 | -59.94167 | 18222 ft | 405 kts | 7° |
| 2026-05-06 21:08 | -3.91800 | -59.93904 | 17596 ft | 399 kts | 7° |
| 2026-05-06 21:08 | -3.89059 | -59.93660 | 17022 ft | 392 kts | 7° |
| 2026-05-06 21:09 | -3.86396 | -59.93428 | 16455 ft | 386 kts | 7° |
| 2026-05-06 21:09 | -3.83739 | -59.93197 | 15881 ft | 380 kts | 7° |
| 2026-05-06 21:09 | -3.81115 | -59.92969 | 15268 ft | 376 kts | 7° |
| 2026-05-06 21:09 | -3.78532 | -59.92744 | 14764 ft | 370 kts | 7° |
| 2026-05-06 21:10 | -3.75980 | -59.92522 | 14203 ft | 365 kts | 7° |
| 2026-05-06 21:10 | -3.73457 | -59.92301 | 13627 ft | 361 kts | 7° |
| 2026-05-06 21:10 | -3.70970 | -59.92085 | 13082 ft | 355 kts | 7° |
| 2026-05-06 21:10 | -3.68525 | -59.91872 | 12554 ft | 349 kts | 7° |
| 2026-05-06 21:11 | -3.66129 | -59.91664 | 12040 ft | 342 kts | 7° |
| 2026-05-06 21:11 | -3.63803 | -59.91461 | 11530 ft | 337 kts | 7° |
| 2026-05-06 21:11 | -3.61403 | -59.91248 | 11043 ft | 360 kts | 7° |
| 2026-05-06 21:11 | -3.58874 | -59.91024 | 10822 ft | 366 kts | 7° |
| 2026-05-06 21:12 | -3.56346 | -59.90804 | 10548 ft | 361 kts | 7° |
| 2026-05-06 21:12 | -3.53889 | -59.90593 | 10419 ft | 346 kts | 7° |
| 2026-05-06 21:12 | -3.51551 | -59.90393 | 10260 ft | 328 kts | 7° |
| 2026-05-06 21:12 | -3.49340 | -59.90203 | 10114 ft | 310 kts | 7° |
| 2026-05-06 21:13 | -3.47252 | -59.90023 | 9957 ft | 293 kts | 7° |
| 2026-05-06 21:13 | -3.45282 | -59.89853 | 9827 ft | 276 kts | 7° |
| 2026-05-06 21:13 | -3.43447 | -59.89694 | 9694 ft | 259 kts | 8° |
| 2026-05-06 21:13 | -3.41685 | -59.89540 | 9380 ft | 252 kts | 8° |
| 2026-05-06 21:14 | -3.39950 | -59.89386 | 8964 ft | 249 kts | 8° |
| 2026-05-06 21:14 | -3.38224 | -59.89232 | 8545 ft | 248 kts | 8° |
| 2026-05-06 21:14 | -3.36512 | -59.89082 | 8139 ft | 246 kts | 8° |
| 2026-05-06 21:14 | -3.34810 | -59.88934 | 7752 ft | 244 kts | 8° |
| 2026-05-06 21:15 | -3.33122 | -59.88789 | 7386 ft | 243 kts | 8° |
| 2026-05-06 21:15 | -3.31447 | -59.88643 | 7011 ft | 241 kts | 8° |
| 2026-05-06 21:15 | -3.29787 | -59.88499 | 6746 ft | 238 kts | 8° |
| 2026-05-06 21:15 | -3.28120 | -59.88352 | 6496 ft | 241 kts | 8° |
| 2026-05-06 21:16 | -3.27019 | -59.88256 | 6331 ft | 238 kts | 8° |
| 2026-05-06 21:16 | -3.25377 | -59.88113 | 6076 ft | 237 kts | 8° |
| 2026-05-06 21:16 | -3.23731 | -59.87967 | 5828 ft | 236 kts | 8° |
| 2026-05-06 21:16 | -3.22092 | -59.87823 | 5581 ft | 236 kts | 8° |
| 2026-05-06 21:17 | -3.19946 | -59.87638 | 5246 ft | 233 kts | 7° |
| 2026-05-06 21:17 | -3.18320 | -59.87497 | 5047 ft | 234 kts | 7° |
| 2026-05-06 21:17 | -3.17236 | -59.87402 | 5002 ft | 231 kts | 7° |
| 2026-05-06 21:17 | -3.15645 | -59.87263 | 5002 ft | 234 kts | 7° |
| 2026-05-06 21:18 | -3.14019 | -59.87122 | 5000 ft | 233 kts | 7° |
| 2026-05-06 21:18 | -3.12386 | -59.87093 | 4975 ft | 235 kts | 2° |
| 2026-05-06 21:18 | -3.10773 | -59.87099 | 4933 ft | 227 kts | 2° |
| 2026-05-06 21:18 | -3.09237 | -59.87108 | 4849 ft | 214 kts | 2° |
| 2026-05-06 21:19 | -3.07783 | -59.87113 | 4757 ft | 203 kts | 3° |
| 2026-05-06 21:19 | -3.06393 | -59.87112 | 4524 ft | 200 kts | 3° |
| 2026-05-06 21:19 | -3.05058 | -59.87420 | 4373 ft | 194 kts | 333° |
| 2026-05-06 21:19 | -3.04163 | -59.88297 | 4233 ft | 174 kts | 303° |
| 2026-05-06 21:20 | -3.03806 | -59.89410 | 3884 ft | 167 kts | 276° |
| 2026-05-06 21:20 | -3.03838 | -59.90565 | 3453 ft | 165 kts | 266° |
| 2026-05-06 21:20 | -3.03895 | -59.91705 | 3039 ft | 163 kts | 268° |
| 2026-05-06 21:20 | -3.03925 | -59.92843 | 2558 ft | 164 kts | 270° |
| 2026-05-06 21:21 | -3.03930 | -59.93959 | 2221 ft | 157 kts | 271° |
| 2026-05-06 21:21 | -3.03923 | -59.95038 | 2042 ft | 160 kts | 272° |
| 2026-05-06 21:21 | -3.03910 | -59.96175 | 1997 ft | 161 kts | 272° |
| 2026-05-06 21:21 | -3.03899 | -59.97289 | 1951 ft | 164 kts | 272° |
| 2026-05-06 21:22 | -3.03895 | -59.98451 | 1588 ft | 167 kts | 272° |
| 2026-05-06 21:22 | -3.03873 | -59.99612 | 1180 ft | 165 kts | 272° |
| 2026-05-06 21:22 | -3.03863 | -60.00738 | 866 ft | 157 kts | 269° |
| 2026-05-06 21:22 | -3.03877 | -60.01782 | 637 ft | 144 kts | 268° |
| 2026-05-06 21:23 | -3.03887 | -60.02781 | 466 ft | 149 kts | 270° |
| 2026-05-06 21:23 | -3.03869 | -60.03804 | 337 ft | 143 kts | 272° |
| 2026-05-06 21:23 | -3.03858 | -60.04756 | 275 ft | 122 kts | 272° |
| 2026-05-06 21:23 | -3.03859 | -60.05396 | 273 ft | 63 kts | 270° |
| 2026-05-06 21:24 | -3.03858 | -60.05754 | 274 ft | 49 kts | 270° |
| 2026-05-06 21:24 | -3.03857 | -60.06047 | 275 ft | 33 kts | 270° |
| 2026-05-06 21:24 | -3.03808 | -60.06176 | 275 ft | 17 kts | 346° |
| 2026-05-06 21:24 | -3.03757 | -60.06167 | 274 ft | 0 kts | 14° |
| 2026-05-06 21:25 | -3.03717 | -60.06143 | 274 ft | 14 kts | 45° |
| 2026-05-06 21:25 | -3.03687 | -60.06040 | 274 ft | 17 kts | 90° |
| 2026-05-06 21:25 | -3.03692 | -60.05920 | 274 ft | 18 kts | 91° |
| 2026-05-06 21:26 | -3.03693 | -60.05793 | 274 ft | 19 kts | 90° |
| 2026-05-06 21:26 | -3.03693 | -60.05657 | 274 ft | 20 kts | 89° |
| 2026-05-06 21:26 | -3.03691 | -60.05512 | 274 ft | 21 kts | 89° |
| 2026-05-06 21:26 | -3.03674 | -60.05363 | 274 ft | 22 kts | 79° |
| 2026-05-06 21:27 | -3.03637 | -60.05212 | 274 ft | 23 kts | 74° |
| 2026-05-06 21:27 | -3.03596 | -60.05056 | 274 ft | 24 kts | 75° |
| 2026-05-06 21:27 | -3.03520 | -60.04912 | 274 ft | 24 kts | 45° |
| 2026-05-06 21:27 | -3.03398 | -60.04809 | 274 ft | 20 kts | 51° |
| 2026-05-06 21:28 | -3.03356 | -60.04704 | 274 ft | 16 kts | 82° |
| 2026-05-06 21:28 | -3.03354 | -60.04688 | 274 ft | 0 kts | 84° |
| 2026-05-06 21:29 | -3.03346 | -60.04679 | 274 ft | 4 kts | 56° |
| 2026-05-06 21:29 | -3.03318 | -60.04669 | 274 ft | 5 kts | 21° |
| 2026-05-06 21:29 | -3.03289 | -60.04666 | 274 ft | 0 kts | 6° |
| 2026-05-06 21:29 | -3.03287 | -60.04666 | 274 ft | 2 kts | 5° |
| 2026-05-06 21:30 | -3.03277 | -60.04665 | 274 ft | 0 kts | 4° |
| 2026-05-06 21:30 | -3.03273 | -60.04665 | 274 ft | 0 kts | 4° |